sensor_id;sensor_type;location;lat;lon;timestamp;temperature;humidity
20891;DHT22;10605;52.968;8.844;2023-03-01T00:01:33;-2.50;99.90
20891;DHT22;10605;52.968;8.844;2023-03-01T00:03:59;-2.50;99.90
20891;DHT22;10605;52.968;8.844;2023-03-01T00:06:28;-2.50;99.90
20891;DHT22;10605;52.968;8.844;2023-03-01T00:08:53;-2.50;99.90
20891;DHT22;10605;52.968;8.844;2023-03-01T00:11:24;-2.60;99.90
20891;DHT22;10605;52.968;8.844;2023-03-01T00:13:54;-2.60;99.90
20891;DHT22;10605;52.968;8.844;2023-03-01T00:16:24;-2.70;99.90
20891;DHT22;10605;52.968;8.844;2023-03-01T00:18:50;-2.70;99.90
20891;DHT22;10605;52.968;8.844;2023-03-01T00:21:20;-2.70;99.90
20891;DHT22;10605;52.968;8.844;2023-03-01T00:23:45;-2.60;99.90
20891;DHT22;10605;52.968;8.844;2023-03-01T00:26:15;-2.60;99.90
20891;DHT22;10605;52.968;8.844;2023-03-01T00:28:41;-2.60;99.90
20891;DHT22;10605;52.968;8.844;2023-03-01T00:31:21;-2.60;99.90
20891;DHT22;10605;52.968;8.844;2023-03-01T00:33:47;-2.60;99.90
20891;DHT22;10605;52.968;8.844;2023-03-01T00:36:14;-2.60;99.90
20891;DHT22;10605;52.968;8.844;2023-03-01T00:38:43;-2.50;99.90
20891;DHT22;10605;52.968;8.844;2023-03-01T00:41:14;-2.50;99.90
20891;DHT22;10605;52.968;8.844;2023-03-01T00:43:40;-2.50;99.90
20891;DHT22;10605;52.968;8.844;2023-03-01T00:46:09;-2.50;99.90
20891;DHT22;10605;52.968;8.844;2023-03-01T00:48:35;-2.60;99.90
20891;DHT22;10605;52.968;8.844;2023-03-01T00:51:21;-2.60;99.90
20891;DHT22;10605;52.968;8.844;2023-03-01T00:53:50;-2.70;99.90
20891;DHT22;10605;52.968;8.844;2023-03-01T00:56:16;-2.80;99.90
20891;DHT22;10605;52.968;8.844;2023-03-01T00:58:42;-2.80;99.90
20891;DHT22;10605;52.968;8.844;2023-03-01T01:01:16;-2.80;99.90
20891;DHT22;10605;52.968;8.844;2023-03-01T01:03:53;-2.80;99.90
20891;DHT22;10605;52.968;8.844;2023-03-01T01:06:22;-2.70;99.90
20891;DHT22;10605;52.968;8.844;2023-03-01T01:08:51;-2.70;99.90
20891;DHT22;10605;52.968;8.844;2023-03-01T01:11:18;-2.70;99.90
20891;DHT22;10605;52.968;8.844;2023-03-01T01:13:45;-2.80;99.90
20891;DHT22;10605;52.968;8.844;2023-03-01T01:16:12;-2.80;99.90
20891;DHT22;10605;52.968;8.844;2023-03-01T01:18:38;-2.90;99.90
20891;DHT22;10605;52.968;8.844;2023-03-01T01:21:09;-2.90;99.90
20891;DHT22;10605;52.968;8.844;2023-03-01T01:23:39;-2.90;99.90
20891;DHT22;10605;52.968;8.844;2023-03-01T01:26:07;-2.90;99.90
20891;DHT22;10605;52.968;8.844;2023-03-01T01:28:33;-2.90;99.90
20891;DHT22;10605;52.968;8.844;2023-03-01T01:30:59;-3.00;99.90
20891;DHT22;10605;52.968;8.844;2023-03-01T01:33:25;-3.00;99.90
20891;DHT22;10605;52.968;8.844;2023-03-01T01:35:52;-3.00;99.90
20891;DHT22;10605;52.968;8.844;2023-03-01T01:38:17;-3.00;99.90
20891;DHT22;10605;52.968;8.844;2023-03-01T01:40:45;-3.00;99.90
20891;DHT22;10605;52.968;8.844;2023-03-01T01:43:27;-3.00;99.90
20891;DHT22;10605;52.968;8.844;2023-03-01T01:46:02;-2.90;99.90
20891;DHT22;10605;52.968;8.844;2023-03-01T01:48:38;-2.90;99.90
20891;DHT22;10605;52.968;8.844;2023-03-01T01:51:08;-2.90;99.90
20891;DHT22;10605;52.968;8.844;2023-03-01T01:53:35;-2.90;99.90
20891;DHT22;10605;52.968;8.844;2023-03-01T01:56:02;-2.90;99.90
20891;DHT22;10605;52.968;8.844;2023-03-01T01:58:29;-3.00;99.90
20891;DHT22;10605;52.968;8.844;2023-03-01T02:00:55;-3.00;99.90
20891;DHT22;10605;52.968;8.844;2023-03-01T02:03:43;-3.00;99.90
20891;DHT22;10605;52.968;8.844;2023-03-01T02:06:21;-3.10;99.90
20891;DHT22;10605;52.968;8.844;2023-03-01T02:08:57;-3.10;99.90
20891;DHT22;10605;52.968;8.844;2023-03-01T02:11:25;-3.10;99.90
20891;DHT22;10605;52.968;8.844;2023-03-01T02:13:52;-3.20;99.90
20891;DHT22;10605;52.968;8.844;2023-03-01T02:16:20;-3.10;99.90
20891;DHT22;10605;52.968;8.844;2023-03-01T02:18:49;-3.10;99.90
20891;DHT22;10605;52.968;8.844;2023-03-01T02:21:33;-3.10;99.90
20891;DHT22;10605;52.968;8.844;2023-03-01T02:24:15;-3.10;99.90
20891;DHT22;10605;52.968;8.844;2023-03-01T02:26:54;-3.20;99.90
20891;DHT22;10605;52.968;8.844;2023-03-01T02:29:22;-3.20;99.90
20891;DHT22;10605;52.968;8.844;2023-03-01T02:31:48;-3.20;99.90
20891;DHT22;10605;52.968;8.844;2023-03-01T02:34:21;-3.20;99.90
20891;DHT22;10605;52.968;8.844;2023-03-01T02:36:51;-3.20;99.90
20891;DHT22;10605;52.968;8.844;2023-03-01T02:39:22;-3.10;99.90
20891;DHT22;10605;52.968;8.844;2023-03-01T02:41:52;-3.10;99.90
20891;DHT22;10605;52.968;8.844;2023-03-01T02:44:18;-3.20;99.90
20891;DHT22;10605;52.968;8.844;2023-03-01T02:46:51;-3.20;99.90
20891;DHT22;10605;52.968;8.844;2023-03-01T02:49:21;-3.30;99.90
20891;DHT22;10605;52.968;8.844;2023-03-01T02:52:06;-3.20;99.90
20891;DHT22;10605;52.968;8.844;2023-03-01T02:54:54;-3.20;99.90
20891;DHT22;10605;52.968;8.844;2023-03-01T02:57:22;-3.20;99.90
20891;DHT22;10605;52.968;8.844;2023-03-01T02:59:49;-3.30;99.90
20891;DHT22;10605;52.968;8.844;2023-03-01T03:02:22;-3.30;99.90
20891;DHT22;10605;52.968;8.844;2023-03-01T03:05:13;-3.40;99.90
20891;DHT22;10605;52.968;8.844;2023-03-01T03:07:41;-3.40;99.90
20891;DHT22;10605;52.968;8.844;2023-03-01T03:10:18;-3.30;99.90
20891;DHT22;10605;52.968;8.844;2023-03-01T03:12:49;-3.30;99.90
20891;DHT22;10605;52.968;8.844;2023-03-01T03:15:16;-3.30;99.90
20891;DHT22;10605;52.968;8.844;2023-03-01T03:17:43;-3.20;99.90
20891;DHT22;10605;52.968;8.844;2023-03-01T03:20:11;-3.20;99.90
20891;DHT22;10605;52.968;8.844;2023-03-01T03:22:40;-3.30;99.90
20891;DHT22;10605;52.968;8.844;2023-03-01T03:25:07;-3.30;99.90
20891;DHT22;10605;52.968;8.844;2023-03-01T03:27:39;-3.20;99.90
20891;DHT22;10605;52.968;8.844;2023-03-01T03:30:07;-3.20;99.90
20891;DHT22;10605;52.968;8.844;2023-03-01T03:32:35;-3.20;99.90
20891;DHT22;10605;52.968;8.844;2023-03-01T03:35:03;-3.20;99.90
20891;DHT22;10605;52.968;8.844;2023-03-01T03:37:38;-3.30;99.90
20891;DHT22;10605;52.968;8.844;2023-03-01T03:40:23;-3.30;99.90
20891;DHT22;10605;52.968;8.844;2023-03-01T03:42:48;-3.30;99.90
20891;DHT22;10605;52.968;8.844;2023-03-01T03:45:16;-3.40;99.90
20891;DHT22;10605;52.968;8.844;2023-03-01T03:47:42;-3.50;99.90
20891;DHT22;10605;52.968;8.844;2023-03-01T03:50:09;-3.50;99.90
20891;DHT22;10605;52.968;8.844;2023-03-01T03:52:35;-3.50;99.90
20891;DHT22;10605;52.968;8.844;2023-03-01T03:55:01;-3.60;99.90
20891;DHT22;10605;52.968;8.844;2023-03-01T03:57:26;-3.60;99.90
20891;DHT22;10605;52.968;8.844;2023-03-01T03:59:52;-3.60;99.90
20891;DHT22;10605;52.968;8.844;2023-03-01T04:02:18;-3.60;99.90
20891;DHT22;10605;52.968;8.844;2023-03-01T04:04:48;-3.60;99.90
20891;DHT22;10605;52.968;8.844;2023-03-01T04:07:17;-3.60;99.90
20891;DHT22;10605;52.968;8.844;2023-03-01T04:09:43;-3.60;99.90
20891;DHT22;10605;52.968;8.844;2023-03-01T04:12:09;-3.60;99.90
20891;DHT22;10605;52.968;8.844;2023-03-01T04:14:36;-3.60;99.90
20891;DHT22;10605;52.968;8.844;2023-03-01T04:17:01;-3.60;99.90
20891;DHT22;10605;52.968;8.844;2023-03-01T04:19:33;-3.60;99.90
20891;DHT22;10605;52.968;8.844;2023-03-01T04:22:04;-3.60;99.90
20891;DHT22;10605;52.968;8.844;2023-03-01T04:24:35;-3.60;99.90
20891;DHT22;10605;52.968;8.844;2023-03-01T04:27:01;-3.60;99.90
20891;DHT22;10605;52.968;8.844;2023-03-01T04:29:27;-3.60;99.90
20891;DHT22;10605;52.968;8.844;2023-03-01T04:31:53;-3.60;99.90
20891;DHT22;10605;52.968;8.844;2023-03-01T04:34:18;-3.70;99.90
20891;DHT22;10605;52.968;8.844;2023-03-01T04:36:44;-3.70;99.90
20891;DHT22;10605;52.968;8.844;2023-03-01T04:39:10;-3.80;99.90
20891;DHT22;10605;52.968;8.844;2023-03-01T04:41:40;-3.80;99.90
20891;DHT22;10605;52.968;8.844;2023-03-01T04:44:06;-3.80;99.90
20891;DHT22;10605;52.968;8.844;2023-03-01T04:46:35;-3.70;99.90
20891;DHT22;10605;52.968;8.844;2023-03-01T04:49:03;-3.90;99.90
20891;DHT22;10605;52.968;8.844;2023-03-01T04:51:29;-3.90;99.90
20891;DHT22;10605;52.968;8.844;2023-03-01T04:53:54;-3.90;99.90
20891;DHT22;10605;52.968;8.844;2023-03-01T04:56:20;-3.80;99.90
20891;DHT22;10605;52.968;8.844;2023-03-01T04:58:48;-3.70;99.90
20891;DHT22;10605;52.968;8.844;2023-03-01T05:01:18;-3.70;99.90
20891;DHT22;10605;52.968;8.844;2023-03-01T05:03:47;-3.70;99.90
20891;DHT22;10605;52.968;8.844;2023-03-01T05:06:14;-3.70;99.90
20891;DHT22;10605;52.968;8.844;2023-03-01T05:08:41;-3.80;99.90
20891;DHT22;10605;52.968;8.844;2023-03-01T05:11:07;-3.90;99.90
20891;DHT22;10605;52.968;8.844;2023-03-01T05:13:37;-4.00;99.90
20891;DHT22;10605;52.968;8.844;2023-03-01T05:16:04;-4.00;99.90
20891;DHT22;10605;52.968;8.844;2023-03-01T05:18:31;-4.00;99.90
20891;DHT22;10605;52.968;8.844;2023-03-01T05:21:16;-4.10;99.90
20891;DHT22;10605;52.968;8.844;2023-03-01T05:23:42;-4.10;99.90
20891;DHT22;10605;52.968;8.844;2023-03-01T05:26:08;-4.20;99.90
20891;DHT22;10605;52.968;8.844;2023-03-01T05:28:34;-4.20;99.90
20891;DHT22;10605;52.968;8.844;2023-03-01T05:31:03;-4.20;99.90
20891;DHT22;10605;52.968;8.844;2023-03-01T05:33:38;-4.20;99.90
20891;DHT22;10605;52.968;8.844;2023-03-01T05:36:07;-4.20;99.90
20891;DHT22;10605;52.968;8.844;2023-03-01T05:38:33;-4.10;99.90
20891;DHT22;10605;52.968;8.844;2023-03-01T05:41:02;-4.10;99.90
20891;DHT22;10605;52.968;8.844;2023-03-01T05:43:30;-4.10;99.90
20891;DHT22;10605;52.968;8.844;2023-03-01T05:45:59;-4.10;99.90
20891;DHT22;10605;52.968;8.844;2023-03-01T05:48:25;-4.00;99.90
20891;DHT22;10605;52.968;8.844;2023-03-01T05:50:51;-4.10;99.90
20891;DHT22;10605;52.968;8.844;2023-03-01T05:53:19;-4.00;99.90
20891;DHT22;10605;52.968;8.844;2023-03-01T05:55:47;-3.90;99.90
20891;DHT22;10605;52.968;8.844;2023-03-01T05:58:20;-4.00;99.90
20891;DHT22;10605;52.968;8.844;2023-03-01T06:00:48;-4.10;99.90
20891;DHT22;10605;52.968;8.844;2023-03-01T06:03:15;-4.10;99.90
20891;DHT22;10605;52.968;8.844;2023-03-01T06:05:42;-4.10;99.90
20891;DHT22;10605;52.968;8.844;2023-03-01T06:08:09;-4.20;99.90
20891;DHT22;10605;52.968;8.844;2023-03-01T06:10:35;-4.20;99.90
20891;DHT22;10605;52.968;8.844;2023-03-01T06:13:01;-4.10;99.90
20891;DHT22;10605;52.968;8.844;2023-03-01T06:15:27;-4.10;99.90
20891;DHT22;10605;52.968;8.844;2023-03-01T06:17:54;-4.10;99.90
20891;DHT22;10605;52.968;8.844;2023-03-01T06:20:24;-4.10;99.90
20891;DHT22;10605;52.968;8.844;2023-03-01T06:22:50;-4.10;99.90
20891;DHT22;10605;52.968;8.844;2023-03-01T06:25:21;-4.00;99.90
20891;DHT22;10605;52.968;8.844;2023-03-01T06:27:47;-4.00;99.90
20891;DHT22;10605;52.968;8.844;2023-03-01T06:30:16;-4.00;99.90
20891;DHT22;10605;52.968;8.844;2023-03-01T06:32:44;-3.90;99.90
20891;DHT22;10605;52.968;8.844;2023-03-01T06:35:16;-3.80;99.90
20891;DHT22;10605;52.968;8.844;2023-03-01T06:37:46;-3.70;99.90
20891;DHT22;10605;52.968;8.844;2023-03-01T06:40:15;-3.50;99.90
20891;DHT22;10605;52.968;8.844;2023-03-01T06:42:50;-3.20;99.90
20891;DHT22;10605;52.968;8.844;2023-03-01T06:45:21;-2.90;99.90
20891;DHT22;10605;52.968;8.844;2023-03-01T06:47:48;-2.70;99.90
20891;DHT22;10605;52.968;8.844;2023-03-01T06:50:15;-2.50;99.90
20891;DHT22;10605;52.968;8.844;2023-03-01T06:52:44;-2.30;99.90
20891;DHT22;10605;52.968;8.844;2023-03-01T06:55:13;-2.10;99.90
20891;DHT22;10605;52.968;8.844;2023-03-01T06:57:42;-1.90;99.90
20891;DHT22;10605;52.968;8.844;2023-03-01T07:00:09;-1.70;99.90
20891;DHT22;10605;52.968;8.844;2023-03-01T07:02:37;-1.50;99.90
20891;DHT22;10605;52.968;8.844;2023-03-01T07:05:06;-1.30;99.90
20891;DHT22;10605;52.968;8.844;2023-03-01T07:07:32;-0.90;99.90
20891;DHT22;10605;52.968;8.844;2023-03-01T07:10:05;-0.60;99.90
20891;DHT22;10605;52.968;8.844;2023-03-01T07:12:31;-0.20;99.90
20891;DHT22;10605;52.968;8.844;2023-03-01T07:15:00;0.50;99.90
20891;DHT22;10605;52.968;8.844;2023-03-01T07:17:26;0.90;99.90
20891;DHT22;10605;52.968;8.844;2023-03-01T07:19:54;1.40;99.90
20891;DHT22;10605;52.968;8.844;2023-03-01T07:22:22;1.70;99.90
20891;DHT22;10605;52.968;8.844;2023-03-01T07:24:48;1.90;99.90
20891;DHT22;10605;52.968;8.844;2023-03-01T07:27:17;2.20;99.90
20891;DHT22;10605;52.968;8.844;2023-03-01T07:29:45;2.30;99.90
20891;DHT22;10605;52.968;8.844;2023-03-01T07:32:13;2.20;99.90
20891;DHT22;10605;52.968;8.844;2023-03-01T07:34:39;2.40;99.90
20891;DHT22;10605;52.968;8.844;2023-03-01T07:37:05;2.90;99.90
20891;DHT22;10605;52.968;8.844;2023-03-01T07:39:33;3.10;99.90
20891;DHT22;10605;52.968;8.844;2023-03-01T07:41:59;3.00;99.90
20891;DHT22;10605;52.968;8.844;2023-03-01T07:44:25;3.20;99.90
20891;DHT22;10605;52.968;8.844;2023-03-01T07:46:50;3.70;99.90
20891;DHT22;10605;52.968;8.844;2023-03-01T07:49:21;3.90;99.90
20891;DHT22;10605;52.968;8.844;2023-03-01T07:51:51;4.00;99.90
20891;DHT22;10605;52.968;8.844;2023-03-01T07:54:19;4.60;99.90
20891;DHT22;10605;52.968;8.844;2023-03-01T07:56:48;5.20;99.90
20891;DHT22;10605;52.968;8.844;2023-03-01T07:59:13;5.20;99.90
20891;DHT22;10605;52.968;8.844;2023-03-01T08:01:45;5.80;99.90
20891;DHT22;10605;52.968;8.844;2023-03-01T08:04:15;5.90;99.90
20891;DHT22;10605;52.968;8.844;2023-03-01T08:06:53;6.00;99.90
20891;DHT22;10605;52.968;8.844;2023-03-01T08:16:39;6.40;99.90
20891;DHT22;10605;52.968;8.844;2023-03-01T08:19:37;5.80;99.90
20891;DHT22;10605;52.968;8.844;2023-03-01T08:22:11;5.90;99.90
20891;DHT22;10605;52.968;8.844;2023-03-01T08:28:16;6.70;99.90
20891;DHT22;10605;52.968;8.844;2023-03-01T08:31:13;7.30;99.90
20891;DHT22;10605;52.968;8.844;2023-03-01T08:34:18;7.70;99.90
20891;DHT22;10605;52.968;8.844;2023-03-01T08:43:57;8.30;99.90
20891;DHT22;10605;52.968;8.844;2023-03-01T08:47:09;8.90;99.90
20891;DHT22;10605;52.968;8.844;2023-03-01T08:50:06;8.90;99.90
20891;DHT22;10605;52.968;8.844;2023-03-01T08:59:02;10.10;99.90
20891;DHT22;10605;52.968;8.844;2023-03-01T09:16:26;10.60;99.90
20891;DHT22;10605;52.968;8.844;2023-03-01T09:23:01;11.60;99.90
20891;DHT22;10605;52.968;8.844;2023-03-01T09:26:28;12.00;99.80
20891;DHT22;10605;52.968;8.844;2023-03-01T10:24:38;14.70;67.10
20891;DHT22;10605;52.968;8.844;2023-03-01T10:35:34;14.30;63.70
20891;DHT22;10605;52.968;8.844;2023-03-01T10:39:29;14.80;62.70
20891;DHT22;10605;52.968;8.844;2023-03-01T10:42:51;15.40;62.30
20891;DHT22;10605;52.968;8.844;2023-03-01T10:49:45;15.10;65.70
20891;DHT22;10605;52.968;8.844;2023-03-01T10:56:51;15.00;62.20
20891;DHT22;10605;52.968;8.844;2023-03-01T10:59:51;14.80;64.40
20891;DHT22;10605;52.968;8.844;2023-03-01T11:04:03;15.20;67.40
20891;DHT22;10605;52.968;8.844;2023-03-01T11:07:27;15.80;70.70
20891;DHT22;10605;52.968;8.844;2023-03-01T11:21:36;17.00;67.90
20891;DHT22;10605;52.968;8.844;2023-03-01T12:22:47;15.10;72.70
20891;DHT22;10605;52.968;8.844;2023-03-01T12:34:05;14.20;75.20
20891;DHT22;10605;52.968;8.844;2023-03-01T12:36:40;14.60;78.80
20891;DHT22;10605;52.968;8.844;2023-03-01T12:39:28;13.60;77.80
20891;DHT22;10605;52.968;8.844;2023-03-01T12:50:24;13.10;79.80
20891;DHT22;10605;52.968;8.844;2023-03-01T12:52:57;12.90;80.80
20891;DHT22;10605;52.968;8.844;2023-03-01T12:58:49;12.70;87.00
20891;DHT22;10605;52.968;8.844;2023-03-01T13:22:38;8.80;99.90
20891;DHT22;10605;52.968;8.844;2023-03-01T13:25:15;8.70;99.90
20891;DHT22;10605;52.968;8.844;2023-03-01T13:27:41;8.80;99.90
20891;DHT22;10605;52.968;8.844;2023-03-01T13:33:39;9.00;99.90
20891;DHT22;10605;52.968;8.844;2023-03-01T13:36:08;9.00;99.90
20891;DHT22;10605;52.968;8.844;2023-03-01T13:47:02;8.60;99.90
20891;DHT22;10605;52.968;8.844;2023-03-01T13:52:48;8.40;99.90
20891;DHT22;10605;52.968;8.844;2023-03-01T13:55:18;8.60;99.90
20891;DHT22;10605;52.968;8.844;2023-03-01T13:57:49;8.50;99.90
20891;DHT22;10605;52.968;8.844;2023-03-01T14:00:39;8.40;99.90
20891;DHT22;10605;52.968;8.844;2023-03-01T14:03:10;8.40;99.90
20891;DHT22;10605;52.968;8.844;2023-03-01T14:05:36;8.40;99.90
20891;DHT22;10605;52.968;8.844;2023-03-01T14:08:13;8.50;99.90
20891;DHT22;10605;52.968;8.844;2023-03-01T14:16:50;8.40;99.90
20891;DHT22;10605;52.968;8.844;2023-03-01T14:19:26;8.40;99.90
20891;DHT22;10605;52.968;8.844;2023-03-01T14:22:35;8.40;99.90
20891;DHT22;10605;52.968;8.844;2023-03-01T14:25:23;8.30;99.90
20891;DHT22;10605;52.968;8.844;2023-03-01T14:28:13;8.30;99.90
20891;DHT22;10605;52.968;8.844;2023-03-01T14:30:56;8.20;99.90
20891;DHT22;10605;52.968;8.844;2023-03-01T14:33:31;8.20;99.90
20891;DHT22;10605;52.968;8.844;2023-03-01T14:36:14;8.20;99.90
20891;DHT22;10605;52.968;8.844;2023-03-01T14:38:45;8.20;99.90
20891;DHT22;10605;52.968;8.844;2023-03-01T14:43:52;8.20;99.90
20891;DHT22;10605;52.968;8.844;2023-03-01T14:46:28;8.20;99.90
20891;DHT22;10605;52.968;8.844;2023-03-01T14:49:04;8.20;99.90
20891;DHT22;10605;52.968;8.844;2023-03-01T14:51:34;8.30;99.90
20891;DHT22;10605;52.968;8.844;2023-03-01T14:54:00;8.20;99.90
20891;DHT22;10605;52.968;8.844;2023-03-01T14:56:26;8.10;99.90
20891;DHT22;10605;52.968;8.844;2023-03-01T14:58:53;8.20;99.90
20891;DHT22;10605;52.968;8.844;2023-03-01T15:01:26;8.20;99.90
20891;DHT22;10605;52.968;8.844;2023-03-01T15:03:53;8.20;99.90
20891;DHT22;10605;52.968;8.844;2023-03-01T15:06:21;8.10;99.90
20891;DHT22;10605;52.968;8.844;2023-03-01T15:08:50;8.10;99.90
20891;DHT22;10605;52.968;8.844;2023-03-01T15:11:30;8.00;99.90
20891;DHT22;10605;52.968;8.844;2023-03-01T15:14:00;8.00;99.90
20891;DHT22;10605;52.968;8.844;2023-03-01T15:16:26;8.10;99.90
20891;DHT22;10605;52.968;8.844;2023-03-01T15:18:55;8.00;99.90
20891;DHT22;10605;52.968;8.844;2023-03-01T15:21:27;8.00;99.90
20891;DHT22;10605;52.968;8.844;2023-03-01T15:24:06;8.00;99.90
20891;DHT22;10605;52.968;8.844;2023-03-01T15:26:49;8.00;99.90
20891;DHT22;10605;52.968;8.844;2023-03-01T15:29:18;7.90;99.90
20891;DHT22;10605;52.968;8.844;2023-03-01T15:31:58;8.00;99.90
20891;DHT22;10605;52.968;8.844;2023-03-01T15:34:27;7.90;99.90
20891;DHT22;10605;52.968;8.844;2023-03-01T15:36:56;7.90;99.90
20891;DHT22;10605;52.968;8.844;2023-03-01T15:39:42;7.90;99.90
20891;DHT22;10605;52.968;8.844;2023-03-01T15:42:12;7.80;99.90
20891;DHT22;10605;52.968;8.844;2023-03-01T15:44:41;7.80;99.90
20891;DHT22;10605;52.968;8.844;2023-03-01T15:47:29;7.80;99.90
20891;DHT22;10605;52.968;8.844;2023-03-01T15:49:56;7.80;99.90
20891;DHT22;10605;52.968;8.844;2023-03-01T15:52:24;7.70;99.90
20891;DHT22;10605;52.968;8.844;2023-03-01T15:54:56;7.60;99.90
20891;DHT22;10605;52.968;8.844;2023-03-01T15:57:22;7.60;99.90
20891;DHT22;10605;52.968;8.844;2023-03-01T15:59:48;7.50;99.90
20891;DHT22;10605;52.968;8.844;2023-03-01T16:02:14;7.50;99.90
20891;DHT22;10605;52.968;8.844;2023-03-01T16:04:40;7.40;99.90
20891;DHT22;10605;52.968;8.844;2023-03-01T16:07:09;7.40;99.90
20891;DHT22;10605;52.968;8.844;2023-03-01T16:09:35;7.40;99.90
20891;DHT22;10605;52.968;8.844;2023-03-01T16:12:01;7.30;99.90
20891;DHT22;10605;52.968;8.844;2023-03-01T16:14:27;7.30;99.90
20891;DHT22;10605;52.968;8.844;2023-03-01T16:16:53;7.20;99.90
20891;DHT22;10605;52.968;8.844;2023-03-01T16:19:18;7.10;99.90
20891;DHT22;10605;52.968;8.844;2023-03-01T16:21:44;7.10;99.90
20891;DHT22;10605;52.968;8.844;2023-03-01T16:24:12;7.10;99.90
20891;DHT22;10605;52.968;8.844;2023-03-01T16:26:38;6.90;99.90
20891;DHT22;10605;52.968;8.844;2023-03-01T16:29:04;6.90;99.90
20891;DHT22;10605;52.968;8.844;2023-03-01T16:31:30;6.90;99.90
20891;DHT22;10605;52.968;8.844;2023-03-01T16:33:57;6.80;99.90
20891;DHT22;10605;52.968;8.844;2023-03-01T16:36:25;6.70;99.90
20891;DHT22;10605;52.968;8.844;2023-03-01T16:38:54;6.70;99.90
20891;DHT22;10605;52.968;8.844;2023-03-01T16:41:21;6.60;99.90
20891;DHT22;10605;52.968;8.844;2023-03-01T16:43:48;6.40;99.90
20891;DHT22;10605;52.968;8.844;2023-03-01T16:46:17;6.40;99.90
20891;DHT22;10605;52.968;8.844;2023-03-01T16:48:43;6.40;99.90
20891;DHT22;10605;52.968;8.844;2023-03-01T16:51:09;6.30;99.90
20891;DHT22;10605;52.968;8.844;2023-03-01T16:53:35;6.30;99.90
20891;DHT22;10605;52.968;8.844;2023-03-01T16:56:03;6.30;99.90
20891;DHT22;10605;52.968;8.844;2023-03-01T16:58:29;6.20;99.90
20891;DHT22;10605;52.968;8.844;2023-03-01T17:00:55;6.20;99.90
20891;DHT22;10605;52.968;8.844;2023-03-01T17:03:25;6.10;99.90
20891;DHT22;10605;52.968;8.844;2023-03-01T17:05:54;6.00;99.90
20891;DHT22;10605;52.968;8.844;2023-03-01T17:08:20;5.90;99.90
20891;DHT22;10605;52.968;8.844;2023-03-01T17:10:46;6.00;99.90
20891;DHT22;10605;52.968;8.844;2023-03-01T17:13:11;5.90;99.90
20891;DHT22;10605;52.968;8.844;2023-03-01T17:15:41;5.90;99.90
20891;DHT22;10605;52.968;8.844;2023-03-01T17:18:08;5.70;99.90
20891;DHT22;10605;52.968;8.844;2023-03-01T17:20:34;5.60;99.90
20891;DHT22;10605;52.968;8.844;2023-03-01T17:23:00;5.60;99.90
20891;DHT22;10605;52.968;8.844;2023-03-01T17:25:26;5.50;99.90
20891;DHT22;10605;52.968;8.844;2023-03-01T17:27:52;5.50;99.90
20891;DHT22;10605;52.968;8.844;2023-03-01T17:30:18;5.50;99.90
20891;DHT22;10605;52.968;8.844;2023-03-01T17:32:43;5.40;99.90
20891;DHT22;10605;52.968;8.844;2023-03-01T17:35:09;5.30;99.90
20891;DHT22;10605;52.968;8.844;2023-03-01T17:37:38;5.20;99.90
20891;DHT22;10605;52.968;8.844;2023-03-01T17:40:05;5.10;99.90
20891;DHT22;10605;52.968;8.844;2023-03-01T17:42:32;4.90;99.90
20891;DHT22;10605;52.968;8.844;2023-03-01T17:44:58;4.90;99.90
20891;DHT22;10605;52.968;8.844;2023-03-01T17:47:25;4.80;99.90
20891;DHT22;10605;52.968;8.844;2023-03-01T17:49:50;4.70;99.90
20891;DHT22;10605;52.968;8.844;2023-03-01T17:52:16;4.60;99.90
20891;DHT22;10605;52.968;8.844;2023-03-01T17:54:42;4.50;99.90
20891;DHT22;10605;52.968;8.844;2023-03-01T17:57:07;4.50;99.90
20891;DHT22;10605;52.968;8.844;2023-03-01T17:59:38;4.60;99.90
20891;DHT22;10605;52.968;8.844;2023-03-01T18:02:04;4.60;99.90
20891;DHT22;10605;52.968;8.844;2023-03-01T18:04:29;4.60;99.90
20891;DHT22;10605;52.968;8.844;2023-03-01T18:06:56;4.50;99.90
20891;DHT22;10605;52.968;8.844;2023-03-01T18:09:25;4.50;99.90
20891;DHT22;10605;52.968;8.844;2023-03-01T18:11:51;4.40;99.90
20891;DHT22;10605;52.968;8.844;2023-03-01T18:14:18;4.40;99.90
20891;DHT22;10605;52.968;8.844;2023-03-01T18:16:44;4.40;99.90
20891;DHT22;10605;52.968;8.844;2023-03-01T18:19:10;4.30;99.90
20891;DHT22;10605;52.968;8.844;2023-03-01T18:21:36;4.30;99.90
20891;DHT22;10605;52.968;8.844;2023-03-01T18:24:01;4.30;99.90
20891;DHT22;10605;52.968;8.844;2023-03-01T18:26:27;4.20;99.90
20891;DHT22;10605;52.968;8.844;2023-03-01T18:28:54;4.20;99.90
20891;DHT22;10605;52.968;8.844;2023-03-01T18:31:23;4.30;99.90
20891;DHT22;10605;52.968;8.844;2023-03-01T18:33:51;4.10;99.90
20891;DHT22;10605;52.968;8.844;2023-03-01T18:36:21;4.10;99.90
20891;DHT22;10605;52.968;8.844;2023-03-01T18:41:44;4.00;99.90
20891;DHT22;10605;52.968;8.844;2023-03-01T18:44:13;4.00;99.90
20891;DHT22;10605;52.968;8.844;2023-03-01T18:46:38;3.90;99.90
20891;DHT22;10605;52.968;8.844;2023-03-01T18:49:05;3.90;99.90
20891;DHT22;10605;52.968;8.844;2023-03-01T18:51:32;3.80;99.90
20891;DHT22;10605;52.968;8.844;2023-03-01T18:53:59;3.80;99.90
20891;DHT22;10605;52.968;8.844;2023-03-01T18:56:25;3.60;99.90
20891;DHT22;10605;52.968;8.844;2023-03-01T18:58:52;3.70;99.90
20891;DHT22;10605;52.968;8.844;2023-03-01T19:01:23;3.60;99.90
20891;DHT22;10605;52.968;8.844;2023-03-01T19:03:51;3.50;99.90
20891;DHT22;10605;52.968;8.844;2023-03-01T19:06:17;3.50;99.90
20891;DHT22;10605;52.968;8.844;2023-03-01T19:08:44;3.40;99.90
20891;DHT22;10605;52.968;8.844;2023-03-01T19:11:10;3.40;99.90
20891;DHT22;10605;52.968;8.844;2023-03-01T19:13:37;3.30;99.90
20891;DHT22;10605;52.968;8.844;2023-03-01T19:16:12;3.30;99.90
20891;DHT22;10605;52.968;8.844;2023-03-01T19:18:39;3.40;99.90
20891;DHT22;10605;52.968;8.844;2023-03-01T19:21:10;3.20;99.90
20891;DHT22;10605;52.968;8.844;2023-03-01T19:23:36;3.20;99.90
20891;DHT22;10605;52.968;8.844;2023-03-01T19:26:06;3.10;99.90
20891;DHT22;10605;52.968;8.844;2023-03-01T19:28:33;3.10;99.90
20891;DHT22;10605;52.968;8.844;2023-03-01T19:31:00;3.00;99.90
20891;DHT22;10605;52.968;8.844;2023-03-01T19:33:31;3.00;99.90
20891;DHT22;10605;52.968;8.844;2023-03-01T19:35:57;3.00;99.90
20891;DHT22;10605;52.968;8.844;2023-03-01T19:38:24;3.00;99.90
20891;DHT22;10605;52.968;8.844;2023-03-01T19:40:52;3.00;99.90
20891;DHT22;10605;52.968;8.844;2023-03-01T19:43:18;2.90;99.90
20891;DHT22;10605;52.968;8.844;2023-03-01T19:45:44;2.80;99.90
20891;DHT22;10605;52.968;8.844;2023-03-01T19:48:11;2.80;99.90
20891;DHT22;10605;52.968;8.844;2023-03-01T19:50:37;2.70;99.90
20891;DHT22;10605;52.968;8.844;2023-03-01T19:53:03;2.70;99.90
20891;DHT22;10605;52.968;8.844;2023-03-01T19:55:29;2.70;99.90
20891;DHT22;10605;52.968;8.844;2023-03-01T19:57:55;2.70;99.90
20891;DHT22;10605;52.968;8.844;2023-03-01T20:00:21;2.70;99.90
20891;DHT22;10605;52.968;8.844;2023-03-01T20:02:46;2.60;99.90
20891;DHT22;10605;52.968;8.844;2023-03-01T20:05:15;2.60;99.90
20891;DHT22;10605;52.968;8.844;2023-03-01T20:07:41;2.50;99.90
20891;DHT22;10605;52.968;8.844;2023-03-01T20:10:07;2.50;99.90
20891;DHT22;10605;52.968;8.844;2023-03-01T20:12:35;2.30;99.90
20891;DHT22;10605;52.968;8.844;2023-03-01T20:15:01;2.30;99.90